• Join FlightAware (Why Join?)
  • Login
  • US Flag GB Flag 
05:50 EDT


 

Airport Tracker/Info


-or-


 

Live Flight TrackerFlight Track Log ✈ FSR411 ✈ 30-Mar-2013 ✈ KHOU - KCMI

Flight Track Log - Related Links

Times and Time Zones

All times are in EDT time to prevent confusion due to time zone crossing. See the FSR411 flight status page for this flight to view local times or setup timezone preferences in your user account.

Time Position Orientation Groundspeed Altitude Reporting Facility
EDT Latitude Longitude Course Direction KTS MPH feet Rate Location/Type
22:12 29.6353 -95.2892 106° East 157 181 800  Level Houston Center
22:14 29.6211 -95.2319 106° East 288 331 3,000 2,100 Climbing Houston Center
22:15 29.6983 -95.2431 353° North 265 305 5,700 3,120 Climbing Houston Center
22:16 29.7600 -95.2739 337° Northwest 271 312 8,900 3,060 Climbing Houston Center
22:17 29.8414 -95.2978 346° North 302 348 12,100 3,420 Climbing Houston Center
22:18 29.9308 -95.2681 16° North 329 379 16,400 3,600 Climbing Houston Center
22:19 30.0306 -95.2417 13° North 356 410 19,500 3,120 Climbing Houston Center
22:20 30.1339 -95.2097 15° North 378 435 22,700 2,940 Climbing Houston Center
22:21 30.2394 -95.1789 14° North 389 448 25,500 2,520 Climbing Houston Center
22:22 30.3478 -95.1469 14° North 398 458 27,900 2,280 Climbing Houston Center
22:23 30.4675 -95.1108 15° North 406 467 30,200 2,040 Climbing Houston Center
22:24 30.5772 -95.0783 14° North 404 465 32,100 1,800 Climbing Houston Center
22:25 30.6803 -95.0186 26° Northeast 414 476 33,900 1,680 Climbing Houston Center
22:26 30.7839 -94.9539 28° Northeast 419 482 35,600 1,680 Climbing Houston Center
22:27 30.8858 -94.8906 28° Northeast 415 478 37,300 1,380 Climbing Houston Center
22:28 30.9858 -94.8294 28° Northeast 407 468 38,400 1,020 Climbing Houston Center
22:28 31.0400 -94.7925 30° Northeast 408 470 39,000 1,080 Climbing Fort Worth Center
22:29 31.1556 -94.7214 28° Northeast 414 476 40,100 960 Climbing Fort Worth Center
22:30 31.2542 -94.6553 30° Northeast 414 476 41,000 420 Climbing Fort Worth Center
22:31 31.3569 -94.5842 31° Northeast 414 476 41,000  Level Fort Worth Center
22:32 31.4639 -94.5103 31° Northeast 427 491 41,000  Level Fort Worth Center
22:33 31.5667 -94.4389 31° Northeast 427 491 41,000  Level Fort Worth Center
22:34 31.6714 -94.3647 31° Northeast 432 497 41,000  Level Fort Worth Center
22:35 31.7781 -94.2903 31° Northeast 437 503 41,000  Level Fort Worth Center
22:36 31.8869 -94.2156 30° Northeast 437 503 41,000  Level Fort Worth Center
22:37 31.9933 -94.1383 32° Northeast 437 503 41,000  Level Fort Worth Center
22:38 32.1019 -94.0633 30° Northeast 437 503 41,000  Level Fort Worth Center
22:39 32.1961 -93.9889 34° Northeast 442 509 41,000  Level Fort Worth Center
22:40 32.3067 -93.9133 30° Northeast 447 514 41,000  Level Fort Worth Center
22:41 32.4131 -93.8353 32° Northeast 447 514 41,000  Level Fort Worth Center
22:42 32.5217 -93.7622 30° Northeast 442 509 41,000  Level Fort Worth Center
22:43 32.6297 -93.6814 32° Northeast 442 509 41,000  Level Fort Worth Center
22:44 32.7383 -93.6053 31° Northeast 442 509 41,000  Level Fort Worth Center
22:45 32.8486 -93.5289 30° Northeast 442 509 41,000  Level Fort Worth Center
22:46 32.9547 -93.4525 31° Northeast 442 509 41,000  Level Fort Worth Center
22:47 33.0628 -93.3756 31° Northeast 442 509 41,000  Level Fort Worth Center
22:48 33.1708 -93.2964 32° Northeast 442 509 41,000  Level Fort Worth Center
22:49 33.2789 -93.2167 32° Northeast 442 509 41,000  Level Fort Worth Center
22:50 33.3869 -93.1394 31° Northeast 442 509 41,000  Level Fort Worth Center
22:51 33.4928 -93.0647 30° Northeast 442 509 41,000  Level Fort Worth Center
22:52 33.6089 -92.9786 32° Northeast 444 511 41,000  Level Memphis Center
22:53 33.7064 -92.9092 31° Northeast 428 493 41,000  Level Memphis Center
22:54 33.8122 -92.8297 32° Northeast 434 499 41,000  Level Memphis Center
22:55 33.9203 -92.7528 31° Northeast 439 505 41,000  Level Memphis Center
22:56 34.0283 -92.6706 32° Northeast 445 512 41,000  Level Memphis Center
22:57 34.1361 -92.5881 32° Northeast 445 512 41,000  Level Memphis Center
22:58 34.2442 -92.5056 32° Northeast 450 518 41,000  Level Memphis Center
22:59 34.3539 -92.4225 32° Northeast 455 524 41,000  Level Memphis Center
23:00 34.4617 -92.3422 32° Northeast 462 532 41,000  Level Memphis Center
23:01 34.5736 -92.2589 31° Northeast 462 532 41,000  Level Memphis Center
23:02 34.6833 -92.1756 32° Northeast 462 532 41,000  Level Memphis Center
23:03 34.7950 -92.1019 28° Northeast 462 532 41,000  Level Memphis Center
23:04 34.9044 -92.0283 29° Northeast 450 518 41,000  Level Memphis Center
23:05 35.0181 -91.9494 30° Northeast 450 518 41,000  Level Memphis Center
23:06 35.1317 -91.8728 29° Northeast 455 524 41,000  Level Memphis Center
23:07 35.2472 -91.7986 28° Northeast 460 529 41,000  Level Memphis Center
23:08 35.3589 -91.7192 30° Northeast 465 535 41,000  Level Memphis Center
23:09 35.4658 -91.6444 30° Northeast 465 535 41,000  Level Memphis Center
23:10 35.5772 -91.5694 29° Northeast 454 522 41,000  Level Memphis Center
23:11 35.6822 -91.4969 29° Northeast 442 509 41,000  Level Memphis Center
23:12 35.7914 -91.4217 29° Northeast 436 502 41,000  Level Memphis Center
23:13 35.8961 -91.3461 30° Northeast 436 502 41,000  Level Memphis Center
23:14 36.0053 -91.2706 29° Northeast 436 502 41,000  Level Memphis Center
23:15 36.1119 -91.1972 29° Northeast 441 507 41,000  Level Memphis Center
23:16 36.2231 -91.1211 29° Northeast 441 507 41,000  Level Memphis Center
23:17 36.3361 -91.0422 29° Northeast 441 507 41,000  Level Memphis Center
23:18 36.4428 -90.9683 29° Northeast 441 507 41,000  Level Memphis Center
23:21 36.6650 -90.8094 30° Northeast 458 527 41,000  Level Kansas City Center
23:22 36.7753 -90.7294 30° Northeast 457 526 41,000  Level Kansas City Center
23:23 36.8867 -90.6503 30° Northeast 458 527 41,000  Level Kansas City Center
23:24 36.9967 -90.5714 30° Northeast 456 525 41,000  Level Kansas City Center
23:25 37.1100 -90.4900 30° Northeast 461 531 41,000  Level Kansas City Center
23:26 37.2203 -90.4108 30° Northeast 459 528 41,000 -480 Level Kansas City Center
23:27 37.3431 -90.3206 30° Northeast 458 527 40,100 -1,440 Descending Kansas City Center
23:28 37.4464 -90.2447 30° Northeast 442 509 38,200 -1,980 Descending Kansas City Center
23:29 37.5481 -90.1703 30° Northeast 428 493 36,200 -2,040 Descending Kansas City Center
23:30 37.6531 -90.0947 30° Northeast 432 497 34,100 -1,920 Descending Kansas City Center
23:31 37.7614 -90.0147 30° Northeast 444 511 32,400 -1,740 Descending Kansas City Center
23:32 37.8778 -89.9294 30° Northeast 443 510 30,700 -1,620 Descending Kansas City Center
23:33 37.9853 -89.8478 31° Northeast 449 517 29,200 -1,440 Descending Kansas City Center
23:34 38.0925 -89.7678 30° Northeast 449 517 27,800 -1,260 Descending Kansas City Center
23:35 38.1964 -89.6900 30° Northeast 438 504 26,700 -1,140 Descending Kansas City Center
23:36 38.3028 -89.6111 30° Northeast 444 511 25,600 -1,380 Descending Kansas City Center
23:37 38.4147 -89.5247 31° Northeast 440 506 24,000 -1,380 Descending Kansas City Center
23:38 38.5172 -89.4478 30° Northeast 432 497 22,900 -1,080 Descending Kansas City Center
23:39 38.6178 -89.3736 30° Northeast 422 486 21,900 -1,080 Descending Kansas City Center
23:40 38.7178 -89.2983 30° Northeast 419 482 20,800 -1,080 Descending Kansas City Center
23:41 38.8161 -89.2244 30° Northeast 414 476 19,800 -1,020 Descending Kansas City Center
23:42 38.9131 -89.1514 30° Northeast 407 468 18,800 -1,020 Descending Kansas City Center
23:43 39.0083 -89.0786 31° Northeast 400 460 17,700 -1,140 Descending Kansas City Center
23:44 39.1097 -89.0014 31° Northeast 395 455 16,600 -1,140 Descending Kansas City Center
23:45 39.1936 -88.9389 30° Northeast 379 436 15,500 -1,260 Descending Kansas City Center
23:46 39.2842 -88.8683 31° Northeast 379 436 14,100 -1,440 Descending Kansas City Center
23:47 39.3731 -88.8003 31° Northeast 375 432 12,700 -1,380 Descending Kansas City Center
23:48 39.4622 -88.7314 31° Northeast 360 414 11,400 -840 Descending Kansas City Center
23:49 39.5442 -88.6664 31° Northeast 350 403 11,000 -600 Descending Kansas City Center
23:50 39.6261 -88.6036 31° Northeast 343 395 10,300 -1,200 Descending Kansas City Center
23:51 39.6961 -88.5475 32° Northeast 310 357 8,700 -2,100 Descending Kansas City Center
23:52 39.7622 -88.4964 31° Northeast 289 333 6,200 -2,220 Descending Kansas City Center
23:53 39.8292 -88.4428 32° Northeast 286 329 4,300 -1,260 Descending Kansas City Center
23:54 39.8925 -88.3911 32° Northeast 285 328 3,700 -600 Descending Kansas City Center
23:56 40.0333 -88.2667 27° Northeast  Level FlightAware Approximate
00:03 40.0388 -88.2778 27° Northeast  Level Estimated
00:04 40.0388 -88.2778 27° Northeast  Level Estimated
00:05 40.0388 -88.2778 27° Northeast  Level Estimated
00:06 40.0388 -88.2778 27° Northeast  Level Estimated